Albion, New Jersey
Current Conditions -  °F | °C
As of 11:54 AM on Wednesday 26 Nov 2014 (Local Time) from KVAY Reporting Station
Moderate Rain Moderate Rain  
Wind Chill: 27°   Ceiling: 600
Heat Index: 35°   Visibility: 2.5mi
Dew Point: 33°   Wind: 12mph
Humidity: 92%   Direction: 350°N
Pressure: 30.01"   Gusts: NA
Location:  39.7587°N, 74.9349°W
Report Text: KVAY 261654Z AUTO 35010KT 2 1/2SM RA BR OVC006 02/01 A3001 RMK AO2 SLP163 P0011 T00170006
Loading
Personal Weather Stations






























Interactive Weather Map New forecast layout! Learn more

10-Day Weather Forecast

Advertisements
Track Severe Weather on mobile